Time;durP1;ratioP1;P1;durP2;ratioP2;P2;SDS_P1;SDS_P2;PMS_P1;PMS_P2;Temp;Humidity;BMP_temperature;BMP_pressure;BME280_temperature;BME280_humidity;BME280_pressure;Samples;Min_cycle;Max_cycle;Signal;HPM_P1;HPM_P2
2023/06/18 00:01:58;;;;;;;8.13;7.33;;;;;;;;;;5037091;28;20538;-61
2023/06/18 00:04:26;;;;;;;9.67;8.87;;;;;;;;;;5036947;28;20500;-61
2023/06/18 00:06:55;;;;;;;9.33;8.43;;;;;;;;;;5036468;28;20514;-61
2023/06/18 00:09:22;;;;;;;11.03;7.70;;;;;;;;;;5036557;28;20437;-61
2023/06/18 00:11:50;;;;;;;12.50;8.63;;;;;;;;;;5036500;28;20859;-61
2023/06/18 00:14:17;;;;;;;9.07;8.17;;;;;;;;;;5036435;28;20442;-61
2023/06/18 00:16:44;;;;;;;9.50;8.60;;;;;;;;;;5036298;28;20484;-61
2023/06/18 00:19:11;;;;;;;9.50;8.60;;;;;;;;;;5036346;28;20442;-61
2023/06/18 00:21:40;;;;;;;11.67;9.47;;;;;;;;;;5036554;28;20449;-61
2023/06/18 00:24:07;;;;;;;11.63;10.10;;;;;;;;;;5036157;28;20446;-61
2023/06/18 00:26:34;;;;;;;11.43;10.20;;;;;;;;;;5036524;28;20477;-61
2023/06/18 00:29:02;;;;;;;18.07;10.53;;;;;;;;;;5036077;28;20442;-61
2023/06/18 00:31:32;;;;;;;12.53;9.83;;;;;;;;;;5036055;28;20973;-61
2023/06/18 00:34:04;;;;;;;13.87;10.20;;;;;;;;;;5036304;28;20442;-61
2023/06/18 00:36:32;;;;;;;16.93;9.90;;;;;;;;;;5036504;28;20439;-60
2023/06/18 00:39:03;;;;;;;16.67;11.00;;;;;;;;;;5036001;28;20442;-61
2023/06/18 00:41:31;;;;;;;13.10;10.37;;;;;;;;;;5036879;28;20426;-61
2023/06/18 00:43:58;;;;;;;13.33;11.93;;;;;;;;;;5035572;28;20450;-61
2023/06/18 00:46:26;;;;;;;12.60;11.00;;;;;;;;;;5035620;28;20498;-61
2023/06/18 00:48:53;;;;;;;13.53;11.20;;;;;;;;;;5035797;28;20468;-61
2023/06/18 00:51:22;;;;;;;13.50;12.10;;;;;;;;;;5035806;28;20446;-61
2023/06/18 00:53:50;;;;;;;14.20;12.80;;;;;;;;;;5035678;28;20800;-61
2023/06/18 00:56:21;;;;;;;13.77;11.80;;;;;;;;;;5035797;28;20449;-61
2023/06/18 00:58:48;;;;;;;13.20;11.53;;;;;;;;;;5034902;28;20861;-61
2023/06/18 01:01:15;;;;;;;12.73;11.33;;;;;;;;;;5035688;28;20449;-61
2023/06/18 01:03:47;;;;;;;15.30;12.00;;;;;;;;;;5035534;28;20457;-61
2023/06/18 01:06:17;;;;;;;12.40;11.10;;;;;;;;;;5035160;28;20502;-61
2023/06/18 01:08:48;;;;;;;13.57;11.87;;;;;;;;;;5035504;28;20784;-61
2023/06/18 01:11:19;;;;;;;14.43;11.97;;;;;;;;;;5036048;28;20434;-61
2023/06/18 01:13:47;;;;;;;15.20;12.03;;;;;;;;;;5035881;28;20472;-60
2023/06/18 01:16:16;;;;;;;16.63;12.03;;;;;;;;;;5034930;28;20454;-60
2023/06/18 01:18:46;;;;;;;17.73;12.37;;;;;;;;;;5035167;28;20449;-60
2023/06/18 01:21:16;;;;;;;17.87;12.23;;;;;;;;;;5035344;28;20430;-59
2023/06/18 01:23:49;;;;;;;16.07;12.87;;;;;;;;;;5035197;28;20444;-60
2023/06/18 01:26:20;;;;;;;16.47;12.63;;;;;;;;;;5034872;28;21013;-60
2023/06/18 01:28:49;;;;;;;16.50;12.80;;;;;;;;;;5035016;28;20430;-60
2023/06/18 01:31:20;;;;;;;14.50;12.27;;;;;;;;;;5034713;28;20489;-59
2023/06/18 01:33:51;;;;;;;14.67;12.43;;;;;;;;;;5035045;28;20765;-60
2023/06/18 01:36:24;;;;;;;14.97;13.33;;;;;;;;;;5035891;28;20437;-60
2023/06/18 01:38:53;;;;;;;18.27;13.57;;;;;;;;;;5034904;28;20516;-60
2023/06/18 01:41:27;;;;;;;13.47;11.97;;;;;;;;;;5035459;28;20452;-60
2023/06/18 01:43:58;;;;;;;17.20;12.90;;;;;;;;;;5034518;28;20434;-60
2023/06/18 01:46:27;;;;;;;18.07;14.50;;;;;;;;;;5034445;28;20497;-59
2023/06/18 01:48:56;;;;;;;16.70;13.37;;;;;;;;;;5034835;28;20447;-60
2023/06/18 01:51:24;;;;;;;14.73;12.87;;;;;;;;;;5034731;28;20512;-60
2023/06/18 01:53:53;;;;;;;15.97;13.30;;;;;;;;;;5034621;28;20492;-60
2023/06/18 01:56:22;;;;;;;30.13;14.93;;;;;;;;;;5034811;28;20556;-60
2023/06/18 01:58:50;;;;;;;17.57;13.27;;;;;;;;;;5034597;28;20444;-60
2023/06/18 02:01:20;;;;;;;15.50;13.90;;;;;;;;;;5034377;28;21021;-60
2023/06/18 02:03:47;;;;;;;18.67;14.33;;;;;;;;;;5034373;28;20442;-60
2023/06/18 02:06:14;;;;;;;15.53;13.70;;;;;;;;;;5035057;28;20485;-60
2023/06/18 02:08:42;;;;;;;17.63;13.70;;;;;;;;;;5033613;28;20456;-60
2023/06/18 02:11:10;;;;;;;14.37;12.33;;;;;;;;;;5034089;28;20456;-60
2023/06/18 02:13:38;;;;;;;16.50;13.57;;;;;;;;;;5034011;28;20449;-59
2023/06/18 02:16:06;;;;;;;18.20;13.13;;;;;;;;;;5034736;28;20469;-61
2023/06/18 02:18:35;;;;;;;17.80;13.10;;;;;;;;;;5034548;28;20444;-60
2023/06/18 02:21:02;;;;;;;21.87;14.73;;;;;;;;;;5034165;28;20524;-60
2023/06/18 02:23:29;;;;;;;16.10;13.63;;;;;;;;;;5034217;28;20786;-60
2023/06/18 02:25:57;;;;;;;16.63;13.03;;;;;;;;;;5034032;28;20523;-60
2023/06/18 02:28:25;;;;;;;19.90;14.63;;;;;;;;;;5033642;28;20449;-60
2023/06/18 02:30:52;;;;;;;16.63;13.50;;;;;;;;;;5033647;28;20454;-60
2023/06/18 02:33:19;;;;;;;14.47;13.07;;;;;;;;;;5033769;28;20442;-60
2023/06/18 02:35:48;;;;;;;14.80;13.30;;;;;;;;;;5033938;28;20536;-59
2023/06/18 02:38:15;;;;;;;18.00;14.27;;;;;;;;;;5033570;28;20454;-60
2023/06/18 02:40:42;;;;;;;16.63;14.53;;;;;;;;;;5033772;28;20445;-60
2023/06/18 02:43:09;;;;;;;15.47;13.97;;;;;;;;;;5033805;28;20800;-60
2023/06/18 02:45:36;;;;;;;16.40;14.03;;;;;;;;;;5033498;28;20468;-60
2023/06/18 02:48:04;;;;;;;17.97;15.13;;;;;;;;;;5034094;28;20449;-59
2023/06/18 02:50:31;;;;;;;17.07;14.40;;;;;;;;;;5033581;28;20436;-60
2023/06/18 02:52:59;;;;;;;16.57;14.07;;;;;;;;;;5033390;28;20449;-60
2023/06/18 02:55:27;;;;;;;15.70;13.93;;;;;;;;;;5033554;28;20483;-60
2023/06/18 02:57:54;;;;;;;17.07;15.37;;;;;;;;;;5034240;28;20443;-60
2023/06/18 03:00:22;;;;;;;21.60;15.83;;;;;;;;;;5033455;28;20462;-59
2023/06/18 03:02:49;;;;;;;17.90;14.37;;;;;;;;;;5033969;28;20987;-59
2023/06/18 03:05:16;;;;;;;15.40;13.80;;;;;;;;;;5033440;28;20456;-60
2023/06/18 03:07:43;;;;;;;18.37;15.47;;;;;;;;;;5033745;28;20484;-59
2023/06/18 03:10:12;;;;;;;18.20;14.60;;;;;;;;;;5033342;28;20470;-59
2023/06/18 03:12:39;;;;;;;15.43;13.97;;;;;;;;;;5033746;28;20760;-59
2023/06/18 03:15:07;;;;;;;14.90;13.40;;;;;;;;;;5033610;28;20446;-60
2023/06/18 03:17:34;;;;;;;16.77;14.97;;;;;;;;;;5033069;28;20444;-60
2023/06/18 03:20:01;;;;;;;16.43;14.80;;;;;;;;;;5032949;28;21056;-60
2023/06/18 03:22:29;;;;;;;18.17;14.63;;;;;;;;;;5038022;28;20449;-59
2023/06/18 03:25:00;;;;;;;19.47;15.40;;;;;;;;;;5037783;28;20484;-60
2023/06/18 03:27:28;;;;;;;19.37;14.40;;;;;;;;;;5037534;28;20969;-60
2023/06/18 03:29:56;;;;;;;18.00;16.20;;;;;;;;;;5038061;28;20450;-60
2023/06/18 03:32:23;;;;;;;17.70;15.90;;;;;;;;;;5037557;28;20451;-60
2023/06/18 03:34:51;;;;;;;17.53;15.63;;;;;;;;;;5036920;28;20486;-60
2023/06/18 03:37:18;;;;;;;17.93;15.60;;;;;;;;;;5036951;28;20505;-60
2023/06/18 03:39:46;;;;;;;16.70;15.00;;;;;;;;;;5037338;28;20940;-60
2023/06/18 03:42:13;;;;;;;20.10;15.50;;;;;;;;;;5037917;28;20478;-60
2023/06/18 03:44:42;;;;;;;18.47;14.40;;;;;;;;;;5036425;28;20455;-60
2023/06/18 03:47:09;;;;;;;22.10;15.57;;;;;;;;;;5037197;28;20505;-60
2023/06/18 03:49:37;;;;;;;19.40;15.70;;;;;;;;;;5036952;28;20802;-60
2023/06/18 03:52:04;;;;;;;19.70;16.10;;;;;;;;;;5018559;28;20449;-60
2023/06/18 03:54:31;;;;;;;20.30;15.87;;;;;;;;;;5016318;28;20608;-60
2023/06/18 03:56:58;;;;;;;18.47;15.70;;;;;;;;;;5016471;28;20551;-60
2023/06/18 03:59:26;;;;;;;18.87;15.57;;;;;;;;;;5016344;28;20442;-60
2023/06/18 04:01:54;;;;;;;19.10;16.90;;;;;;;;;;5016404;28;20957;-60
2023/06/18 04:04:21;;;;;;;19.27;15.87;;;;;;;;;;5016272;28;20483;-60
2023/06/18 04:06:49;;;;;;;18.33;16.33;;;;;;;;;;5016091;28;20581;-60
2023/06/18 04:09:16;;;;;;;16.53;14.90;;;;;;;;;;5015963;28;20451;-61
2023/06/18 04:11:45;;;;;;;19.47;17.43;;;;;;;;;;5015842;28;20440;-60
2023/06/18 04:14:12;;;;;;;17.37;15.57;;;;;;;;;;5015968;28;20455;-60
2023/06/18 04:16:39;;;;;;;17.67;15.87;;;;;;;;;;5016175;28;20444;-60
2023/06/18 04:19:08;;;;;;;19.20;16.97;;;;;;;;;;5016726;28;20445;-60
2023/06/18 04:21:36;;;;;;;19.13;17.27;;;;;;;;;;5015697;28;20539;-60
2023/06/18 04:24:04;;;;;;;18.80;16.77;;;;;;;;;;5016218;28;20462;-60
2023/06/18 04:26:32;;;;;;;18.43;16.53;;;;;;;;;;5016414;28;20482;-60
2023/06/18 04:28:59;;;;;;;19.27;17.40;;;;;;;;;;5016452;28;20446;-60
2023/06/18 04:31:26;;;;;;;20.63;17.60;;;;;;;;;;5015988;28;20459;-60
2023/06/18 04:33:53;;;;;;;17.07;15.30;;;;;;;;;;5016405;28;20778;-60
2023/06/18 04:36:22;;;;;;;19.07;16.37;;;;;;;;;;5016552;28;20446;-60
2023/06/18 04:38:49;;;;;;;18.70;16.70;;;;;;;;;;5016156;28;20863;-60
2023/06/18 04:41:16;;;;;;;19.50;17.60;;;;;;;;;;5015439;28;20484;-60
2023/06/18 04:43:43;;;;;;;20.27;17.50;;;;;;;;;;5015544;28;20448;-60
2023/06/18 04:46:11;;;;;;;18.63;16.83;;;;;;;;;;5016383;28;20536;-60
2023/06/18 04:48:38;;;;;;;21.00;17.57;;;;;;;;;;5015788;28;20568;-60
2023/06/18 04:51:06;;;;;;;22.63;16.57;;;;;;;;;;5015671;28;20454;-60
2023/06/18 04:53:34;;;;;;;18.70;16.80;;;;;;;;;;5015985;28;20958;-60
2023/06/18 04:56:01;;;;;;;20.17;18.10;;;;;;;;;;5015897;28;20578;-60
2023/06/18 04:58:34;;;;;;;20.27;18.20;;;;;;;;;;5016043;28;20444;-60
2023/06/18 05:01:01;;;;;;;18.67;16.80;;;;;;;;;;5014796;28;20431;-60
2023/06/18 05:03:28;;;;;;;20.93;18.80;;;;;;;;;;5014975;28;20956;-60
2023/06/18 05:05:56;;;;;;;22.27;19.80;;;;;;;;;;5016005;28;20444;-60
2023/06/18 05:08:23;;;;;;;20.20;18.10;;;;;;;;;;5015733;28;20481;-60
2023/06/18 05:10:51;;;;;;;21.50;19.37;;;;;;;;;;5015321;28;20459;-60
2023/06/18 05:13:19;;;;;;;21.57;19.27;;;;;;;;;;5015535;28;20951;-60
2023/06/18 05:15:46;;;;;;;19.83;18.00;;;;;;;;;;5015340;28;20453;-60
2023/06/18 05:18:13;;;;;;;20.97;18.67;;;;;;;;;;5015784;28;20476;-60
2023/06/18 05:20:40;;;;;;;22.57;20.23;;;;;;;;;;5014606;28;20441;-60
2023/06/18 05:23:07;;;;;;;20.90;18.90;;;;;;;;;;5015091;28;20457;-60
2023/06/18 05:25:37;;;;;;;21.93;19.60;;;;;;;;;;5015326;28;20457;-60
2023/06/18 05:28:06;;;;;;;25.00;19.70;;;;;;;;;;5015033;28;20996;-60
2023/06/18 05:30:33;;;;;;;21.60;19.50;;;;;;;;;;5015866;28;20549;-60
2023/06/18 05:33:00;;;;;;;22.77;19.83;;;;;;;;;;5015134;28;20440;-60
2023/06/18 05:35:27;;;;;;;21.63;19.00;;;;;;;;;;5015583;28;20808;-60
2023/06/18 05:37:54;;;;;;;20.03;18.13;;;;;;;;;;5014804;28;20458;-60
2023/06/18 05:40:22;;;;;;;22.00;19.80;;;;;;;;;;5014676;28;20455;-60
2023/06/18 05:42:49;;;;;;;20.83;18.83;;;;;;;;;;5013986;28;20450;-60
2023/06/18 05:45:17;;;;;;;20.70;18.70;;;;;;;;;;5014377;28;20471;-60
2023/06/18 05:47:45;;;;;;;22.40;20.10;;;;;;;;;;5014558;28;20479;-60
2023/06/18 05:50:12;;;;;;;21.67;19.57;;;;;;;;;;5015277;28;20533;-60
2023/06/18 05:52:39;;;;;;;24.50;19.77;;;;;;;;;;5014419;28;20538;-61
2023/06/18 05:55:07;;;;;;;20.40;18.30;;;;;;;;;;5014827;28;20534;-61
2023/06/18 05:57:35;;;;;;;22.07;19.33;;;;;;;;;;5014419;28;20454;-60
2023/06/18 06:00:02;;;;;;;23.13;20.10;;;;;;;;;;5014666;28;20508;-61
2023/06/18 06:02:31;;;;;;;25.63;18.40;;;;;;;;;;5014182;28;20445;-60
2023/06/18 06:04:58;;;;;;;21.33;19.13;;;;;;;;;;5014803;28;20451;-60
2023/06/18 06:07:25;;;;;;;23.67;19.43;;;;;;;;;;5014492;28;20489;-60
2023/06/18 06:09:52;;;;;;;20.80;18.60;;;;;;;;;;5014642;28;20454;-60
2023/06/18 06:12:20;;;;;;;20.13;18.03;;;;;;;;;;5014394;28;20453;-60
2023/06/18 06:14:47;;;;;;;21.13;18.93;;;;;;;;;;5014567;28;20454;-60
2023/06/18 06:17:14;;;;;;;20.00;18.03;;;;;;;;;;5014288;28;20453;-60
2023/06/18 06:19:43;;;;;;;20.73;18.83;;;;;;;;;;5014468;28;20533;-60
2023/06/18 06:22:10;;;;;;;21.00;18.77;;;;;;;;;;5013515;28;20443;-62
2023/06/18 06:24:37;;;;;;;21.60;19.40;;;;;;;;;;5014053;28;20473;-61
2023/06/18 06:27:05;;;;;;;20.50;18.40;;;;;;;;;;5013854;28;20454;-60
2023/06/18 06:29:32;;;;;;;21.53;17.43;;;;;;;;;;5014201;28;20946;-60
2023/06/18 06:31:59;;;;;;;19.20;17.27;;;;;;;;;;5013818;28;20929;-60
2023/06/18 06:34:26;;;;;;;20.10;18.10;;;;;;;;;;5013939;28;20538;-60
2023/06/18 06:36:55;;;;;;;19.73;17.60;;;;;;;;;;5014310;28;20462;-60
2023/06/18 06:39:22;;;;;;;19.87;16.53;;;;;;;;;;5014188;28;20447;-60
2023/06/18 06:41:49;;;;;;;18.67;16.97;;;;;;;;;;5013293;28;20852;-61
2023/06/18 06:44:17;;;;;;;18.93;17.23;;;;;;;;;;5013160;28;20444;-65
2023/06/18 06:46:44;;;;;;;19.30;17.30;;;;;;;;;;5013643;28;20482;-62
2023/06/18 06:49:12;;;;;;;19.27;17.27;;;;;;;;;;5013778;28;20840;-61
2023/06/18 06:51:39;;;;;;;19.80;17.67;;;;;;;;;;5013970;28;20808;-61
2023/06/18 06:54:09;;;;;;;18.33;16.70;;;;;;;;;;5013765;28;20497;-61
2023/06/18 06:56:36;;;;;;;21.00;16.80;;;;;;;;;;5013760;28;20542;-62
2023/06/18 06:59:03;;;;;;;20.27;18.13;;;;;;;;;;5031396;28;20485;-62
2023/06/18 07:01:30;;;;;;;17.47;15.40;;;;;;;;;;5032215;28;20445;-62
2023/06/18 07:03:57;;;;;;;22.30;16.87;;;;;;;;;;5032478;28;20444;-62
2023/06/18 07:06:25;;;;;;;17.00;15.20;;;;;;;;;;5033491;28;20463;-61
2023/06/18 07:08:53;;;;;;;17.87;15.60;;;;;;;;;;5033242;28;20480;-61
2023/06/18 07:11:21;;;;;;;16.13;14.67;;;;;;;;;;5033378;28;20452;-61
2023/06/18 07:13:48;;;;;;;17.70;15.80;;;;;;;;;;5033510;28;20443;-62
2023/06/18 07:16:16;;;;;;;18.27;15.57;;;;;;;;;;5033007;28;20454;-62
2023/06/18 07:18:44;;;;;;;15.33;13.83;;;;;;;;;;5033142;28;20439;-62
2023/06/18 07:21:11;;;;;;;15.23;13.83;;;;;;;;;;5032722;28;20446;-62
2023/06/18 07:23:38;;;;;;;14.93;13.43;;;;;;;;;;5032941;28;20513;-62
2023/06/18 07:26:05;;;;;;;13.53;12.20;;;;;;;;;;5033263;28;20457;-62
2023/06/18 07:28:34;;;;;;;14.10;12.70;;;;;;;;;;5033076;28;20483;-62
2023/06/18 07:31:01;;;;;;;14.73;12.90;;;;;;;;;;5033352;28;20444;-62
2023/06/18 07:33:28;;;;;;;16.90;14.23;;;;;;;;;;5033410;28;20444;-62
2023/06/18 07:35:55;;;;;;;13.77;12.53;;;;;;;;;;5032612;28;20451;-62
2023/06/18 07:38:23;;;;;;;17.60;13.07;;;;;;;;;;5033014;28;20457;-62
2023/06/18 07:40:50;;;;;;;13.97;12.60;;;;;;;;;;5032835;28;20447;-62
2023/06/18 07:43:17;;;;;;;13.83;12.60;;;;;;;;;;5032066;28;20486;-62
2023/06/18 07:45:46;;;;;;;13.20;11.83;;;;;;;;;;5032588;28;20477;-62
2023/06/18 07:48:13;;;;;;;12.30;11.27;;;;;;;;;;5032791;28;20484;-62
2023/06/18 07:50:41;;;;;;;13.80;12.40;;;;;;;;;;5032776;28;20808;-62
2023/06/18 07:53:08;;;;;;;19.73;12.37;;;;;;;;;;5033404;28;20522;-62
2023/06/18 07:55:35;;;;;;;14.63;13.17;;;;;;;;;;5033222;28;20445;-62
2023/06/18 07:58:02;;;;;;;14.13;12.70;;;;;;;;;;5032910;28;20449;-62
2023/06/18 08:00:29;;;;;;;13.00;11.70;;;;;;;;;;5032036;28;20440;-62
2023/06/18 08:02:58;;;;;;;12.27;11.07;;;;;;;;;;5032277;28;20450;-62
2023/06/18 08:05:26;;;;;;;13.43;12.23;;;;;;;;;;5032705;28;20420;-63
2023/06/18 08:07:53;;;;;;;11.47;10.47;;;;;;;;;;5035871;28;20481;-62
2023/06/18 08:10:20;;;;;;;11.80;10.70;;;;;;;;;;5036508;28;20460;-63
2023/06/18 08:12:47;;;;;;;11.33;10.43;;;;;;;;;;5036238;28;20447;-63
2023/06/18 08:15:15;;;;;;;13.53;11.53;;;;;;;;;;5036324;28;20452;-62
2023/06/18 08:17:45;;;;;;;12.03;10.80;;;;;;;;;;5036185;28;20458;-62
2023/06/18 08:20:14;;;;;;;11.13;10.07;;;;;;;;;;5035813;28;20450;-62
2023/06/18 08:22:41;;;;;;;11.30;10.23;;;;;;;;;;5035627;28;20564;-62
2023/06/18 08:25:08;;;;;;;11.10;10.00;;;;;;;;;;5035791;28;20445;-62
2023/06/18 08:27:35;;;;;;;11.10;10.00;;;;;;;;;;5036101;28;20455;-61
2023/06/18 08:30:03;;;;;;;11.90;10.70;;;;;;;;;;5036131;28;20445;-62
2023/06/18 08:32:30;;;;;;;11.67;10.67;;;;;;;;;;5036177;28;20413;-62
2023/06/18 08:34:57;;;;;;;12.00;10.67;;;;;;;;;;5036001;28;20444;-62
2023/06/18 08:37:26;;;;;;;11.50;10.47;;;;;;;;;;5036036;28;20485;-62
2023/06/18 08:39:53;;;;;;;10.60;9.60;;;;;;;;;;5035763;28;20442;-62
2023/06/18 08:42:22;;;;;;;10.73;9.63;;;;;;;;;;5034914;28;20441;-62
2023/06/18 08:44:50;;;;;;;11.60;10.43;;;;;;;;;;5034912;28;20968;-62
2023/06/18 08:47:18;;;;;;;11.67;10.43;;;;;;;;;;5035611;28;20488;-62
2023/06/18 08:49:45;;;;;;;10.97;9.93;;;;;;;;;;5035230;28;20484;-62
2023/06/18 08:52:14;;;;;;;11.73;10.00;;;;;;;;;;5035506;28;20500;-62
2023/06/18 08:54:44;;;;;;;10.40;9.50;;;;;;;;;;5035782;28;20417;-62
2023/06/18 08:57:14;;;;;;;10.57;9.67;;;;;;;;;;5035626;28;20533;-62
2023/06/18 08:59:42;;;;;;;11.37;9.87;;;;;;;;;;5035044;28;20453;-62
2023/06/18 09:02:11;;;;;;;11.37;10.37;;;;;;;;;;5034777;28;20415;-62
2023/06/18 09:04:39;;;;;;;11.40;9.33;;;;;;;;;;5035064;28;20469;-62
2023/06/18 09:07:07;;;;;;;9.87;8.90;;;;;;;;;;5035518;28;20440;-62
2023/06/18 09:09:34;;;;;;;10.73;9.83;;;;;;;;;;5034956;28;20476;-62
2023/06/18 09:12:02;;;;;;;10.33;9.20;;;;;;;;;;5035958;28;20444;-62
2023/06/18 09:14:29;;;;;;;10.30;9.30;;;;;;;;;;5035231;28;20451;-62
2023/06/18 09:16:57;;;;;;;12.67;8.60;;;;;;;;;;5035540;28;20422;-62
2023/06/18 09:19:24;;;;;;;10.27;9.20;;;;;;;;;;5034100;28;20485;-62
2023/06/18 09:21:53;;;;;;;10.10;9.23;;;;;;;;;;5034767;28;20460;-62
2023/06/18 09:24:21;;;;;;;10.90;9.07;;;;;;;;;;5034652;28;20417;-63
2023/06/18 09:26:48;;;;;;;20.17;9.50;;;;;;;;;;5035770;28;20469;-62
2023/06/18 09:29:17;;;;;;;9.70;8.77;;;;;;;;;;5034746;28;21019;-62
2023/06/18 09:31:45;;;;;;;9.70;8.80;;;;;;;;;;5035008;28;20428;-62
2023/06/18 09:34:13;;;;;;;10.03;9.23;;;;;;;;;;5034657;28;20415;-62
2023/06/18 09:36:41;;;;;;;11.33;10.30;;;;;;;;;;5034882;28;20420;-62
2023/06/18 09:39:15;;;;;;;9.93;8.93;;;;;;;;;;5035503;28;20487;-62
2023/06/18 09:41:43;;;;;;;10.07;9.00;;;;;;;;;;5034547;28;20411;-62
2023/06/18 09:44:13;;;;;;;9.63;8.83;;;;;;;;;;5034738;28;20461;-62
2023/06/18 09:46:44;;;;;;;10.17;9.27;;;;;;;;;;5034749;28;20450;-62
2023/06/18 09:49:12;;;;;;;10.10;9.20;;;;;;;;;;5034732;28;20443;-62
2023/06/18 09:51:40;;;;;;;9.50;8.70;;;;;;;;;;5034520;28;20428;-62
2023/06/18 09:54:07;;;;;;;10.70;8.20;;;;;;;;;;5035393;28;20762;-62
2023/06/18 09:56:35;;;;;;;9.93;8.87;;;;;;;;;;5034414;28;20443;-62
2023/06/18 09:59:03;;;;;;;9.43;8.53;;;;;;;;;;5034231;28;20435;-62
2023/06/18 10:01:31;;;;;;;9.00;8.20;;;;;;;;;;5033993;28;20449;-62
2023/06/18 10:03:59;;;;;;;8.97;8.10;;;;;;;;;;5034097;28;20422;-62
2023/06/18 10:06:27;;;;;;;9.77;8.73;;;;;;;;;;5034043;28;20474;-61
2023/06/18 10:08:55;;;;;;;12.53;10.00;;;;;;;;;;5034308;28;20452;-63
2023/06/18 10:11:23;;;;;;;10.43;9.33;;;;;;;;;;5034246;28;20504;-63
2023/06/18 10:13:51;;;;;;;9.13;8.23;;;;;;;;;;5034317;28;20879;-63
2023/06/18 10:16:19;;;;;;;8.70;7.80;;;;;;;;;;5034422;28;20439;-63
2023/06/18 10:18:52;;;;;;;8.70;8.00;;;;;;;;;;5034197;28;20504;-63
2023/06/18 10:21:22;;;;;;;8.40;7.60;;;;;;;;;;5032211;28;20436;-63
2023/06/18 10:23:53;;;;;;;10.07;8.33;;;;;;;;;;5033678;28;20477;-63
2023/06/18 10:26:20;;;;;;;8.00;7.30;;;;;;;;;;5033842;28;20419;-63
2023/06/18 10:28:48;;;;;;;9.17;8.37;;;;;;;;;;5034032;28;20553;-63
2023/06/18 10:31:16;;;;;;;10.50;8.57;;;;;;;;;;5033497;28;20446;-62
2023/06/18 10:33:44;;;;;;;8.87;8.07;;;;;;;;;;5034043;28;20443;-62
2023/06/18 10:36:11;;;;;;;9.17;8.27;;;;;;;;;;5033788;28;20446;-63
2023/06/18 10:38:40;;;;;;;9.10;8.17;;;;;;;;;;5033539;28;20956;-63
2023/06/18 10:41:10;;;;;;;9.57;8.77;;;;;;;;;;5033475;28;20864;-63
2023/06/18 10:43:39;;;;;;;7.40;6.80;;;;;;;;;;5033291;28;20438;-63
2023/06/18 10:46:10;;;;;;;11.00;7.43;;;;;;;;;;5033364;28;20567;-62
2023/06/18 10:48:38;;;;;;;10.00;7.93;;;;;;;;;;5034430;28;20497;-62
2023/06/18 10:51:27;;;;;;;9.33;8.53;;;;;;;;;;5033370;28;20452;-62
2023/06/18 10:54:16;;;;;;;8.17;7.47;;;;;;;;;;5030388;28;20552;-62
2023/06/18 10:56:52;;;;;;;8.90;7.97;;;;;;;;;;5033338;28;20931;-62
2023/06/18 10:59:33;;;;;;;7.07;6.47;;;;;;;;;;5033223;28;20466;-62
2023/06/18 11:02:01;;;;;;;8.93;8.07;;;;;;;;;;5032796;28;20425;-62
2023/06/18 11:04:31;;;;;;;8.83;7.20;;;;;;;;;;5032258;28;20450;-62
2023/06/18 11:07:12;;;;;;;8.70;7.93;;;;;;;;;;5032617;28;20916;-62
2023/06/18 11:09:48;;;;;;;8.50;7.70;;;;;;;;;;5033325;28;20817;-62
2023/06/18 11:12:19;;;;;;;8.90;8.20;;;;;;;;;;5033164;28;20426;-62
2023/06/18 11:15:01;;;;;;;7.60;7.00;;;;;;;;;;5032980;28;20450;-62
2023/06/18 11:17:28;;;;;;;10.07;8.00;;;;;;;;;;5032697;28;20859;-62
2023/06/18 11:19:56;;;;;;;8.90;8.03;;;;;;;;;;5032580;28;20860;-62
2023/06/18 11:22:23;;;;;;;7.90;7.13;;;;;;;;;;5032757;28;20753;-62
2023/06/18 11:24:52;;;;;;;8.87;7.83;;;;;;;;;;5032837;28;20596;-62
2023/06/18 11:27:20;;;;;;;7.13;6.53;;;;;;;;;;5032411;28;20434;-62
2023/06/18 11:29:47;;;;;;;8.77;7.50;;;;;;;;;;5032871;28;20516;-62
2023/06/18 11:32:15;;;;;;;7.10;6.50;;;;;;;;;;5032989;28;20837;-62
2023/06/18 11:34:42;;;;;;;9.20;8.30;;;;;;;;;;5032639;28;20722;-62
2023/06/18 11:37:10;;;;;;;7.50;6.90;;;;;;;;;;5032950;28;20428;-62
2023/06/18 11:39:37;;;;;;;8.37;7.67;;;;;;;;;;5032914;28;20473;-62
2023/06/18 11:42:18;;;;;;;8.60;7.83;;;;;;;;;;5034671;28;20613;-62
2023/06/18 11:44:48;;;;;;;8.20;7.50;;;;;;;;;;5036973;28;20777;-62
2023/06/18 11:47:15;;;;;;;8.87;8.07;;;;;;;;;;5036479;28;20456;-62
2023/06/18 11:49:43;;;;;;;8.70;7.90;;;;;;;;;;5036829;28;20479;-63
2023/06/18 11:52:11;;;;;;;7.90;7.20;;;;;;;;;;5036851;28;20441;-62
2023/06/18 11:54:40;;;;;;;12.47;7.73;;;;;;;;;;5036625;28;20548;-62
2023/06/18 11:57:07;;;;;;;8.37;7.63;;;;;;;;;;5037044;28;20450;-62
2023/06/18 11:59:36;;;;;;;8.90;8.00;;;;;;;;;;5037083;28;20532;-62
2023/06/18 12:02:10;;;;;;;9.00;8.10;;;;;;;;;;5036517;28;20460;-64
2023/06/18 12:04:38;;;;;;;8.27;7.53;;;;;;;;;;5036404;28;20964;-64
2023/06/18 12:07:05;;;;;;;8.17;7.53;;;;;;;;;;5036391;28;20456;-64
2023/06/18 12:09:33;;;;;;;7.90;7.20;;;;;;;;;;5036069;28;20481;-62
2023/06/18 12:12:14;;;;;;;9.03;8.20;;;;;;;;;;5036264;28;20435;-62
2023/06/18 12:14:43;;;;;;;8.00;7.30;;;;;;;;;;5036200;28;20433;-63
2023/06/18 12:17:16;;;;;;;8.30;7.60;;;;;;;;;;5036054;28;20482;-63
2023/06/18 12:19:46;;;;;;;7.83;7.13;;;;;;;;;;5036224;28;20411;-63
2023/06/18 12:22:13;;;;;;;8.43;7.73;;;;;;;;;;5035898;28;20461;-63
2023/06/18 12:24:40;;;;;;;12.10;11.03;;;;;;;;;;5035253;28;20448;-62
2023/06/18 12:27:09;;;;;;;10.80;9.80;;;;;;;;;;5014747;28;20931;-62
2023/06/18 12:29:36;;;;;;;9.53;8.60;;;;;;;;;;5015111;28;20475;-62
2023/06/18 12:32:09;;;;;;;8.93;8.20;;;;;;;;;;5015318;28;20478;-61
2023/06/18 12:34:37;;;;;;;8.43;7.60;;;;;;;;;;5015734;28;20441;-61
2023/06/18 12:37:04;;;;;;;11.23;8.00;;;;;;;;;;5015993;28;20505;-62
2023/06/18 12:39:32;;;;;;;9.87;7.03;;;;;;;;;;5015249;28;20545;-62
2023/06/18 12:41:59;;;;;;;8.27;7.57;;;;;;;;;;5030487;28;20439;-61
2023/06/18 12:44:28;;;;;;;9.00;8.10;;;;;;;;;;5035414;28;20976;-62
2023/06/18 12:46:57;;;;;;;8.53;7.73;;;;;;;;;;5015596;28;20506;-62
2023/06/18 12:49:26;;;;;;;10.00;9.00;;;;;;;;;;5015735;28;20535;-62
2023/06/18 12:51:54;;;;;;;8.70;7.73;;;;;;;;;;5015753;28;20511;-62
2023/06/18 12:54:22;;;;;;;7.70;7.10;;;;;;;;;;5015505;28;20450;-62
2023/06/18 12:56:49;;;;;;;8.43;7.63;;;;;;;;;;5015300;28;20951;-62
2023/06/18 12:59:17;;;;;;;11.10;8.07;;;;;;;;;;5015105;28;20939;-62
2023/06/18 13:01:45;;;;;;;10.30;8.70;;;;;;;;;;5015520;28;20928;-62
2023/06/18 13:04:13;;;;;;;9.73;8.10;;;;;;;;;;5015241;28;20941;-61
2023/06/18 13:06:42;;;;;;;8.60;7.70;;;;;;;;;;5015565;28;20460;-61
2023/06/18 13:09:09;;;;;;;8.97;8.17;;;;;;;;;;5015474;28;20502;-62
2023/06/18 13:11:38;;;;;;;8.67;7.73;;;;;;;;;;5015032;28;20538;-62
2023/06/18 13:14:05;;;;;;;8.50;7.23;;;;;;;;;;5015433;28;20451;-62
2023/06/18 13:16:33;;;;;;;9.30;8.60;;;;;;;;;;5015033;28;20506;-62
2023/06/18 13:19:04;;;;;;;8.20;7.50;;;;;;;;;;5015130;28;20448;-62
2023/06/18 13:21:33;;;;;;;10.47;9.50;;;;;;;;;;5015082;28;20986;-61
2023/06/18 13:24:01;;;;;;;8.17;7.57;;;;;;;;;;5015387;28;20548;-61
2023/06/18 13:26:29;;;;;;;7.87;7.07;;;;;;;;;;5015114;28;20532;-61
2023/06/18 13:28:56;;;;;;;8.40;7.70;;;;;;;;;;5015240;28;20446;-61
2023/06/18 13:31:24;;;;;;;7.47;6.87;;;;;;;;;;5015345;28;20489;-61
2023/06/18 13:33:51;;;;;;;8.17;7.47;;;;;;;;;;5014926;28;20564;-61
2023/06/18 13:36:19;;;;;;;8.30;7.60;;;;;;;;;;5014712;28;20456;-61
2023/06/18 13:38:46;;;;;;;8.40;7.70;;;;;;;;;;5014739;28;20447;-61
2023/06/18 13:41:14;;;;;;;7.83;7.23;;;;;;;;;;5015122;28;20457;-61
2023/06/18 13:43:42;;;;;;;10.90;7.63;;;;;;;;;;5015012;28;20442;-61
2023/06/18 13:46:09;;;;;;;8.87;7.97;;;;;;;;;;5029385;28;20970;-61
2023/06/18 13:48:36;;;;;;;9.53;7.83;;;;;;;;;;5034747;28;20471;-61
2023/06/18 13:51:03;;;;;;;7.97;7.27;;;;;;;;;;5034423;28;20473;-61
2023/06/18 13:53:30;;;;;;;8.10;7.50;;;;;;;;;;5034319;28;20456;-61
2023/06/18 13:55:57;;;;;;;8.77;7.97;;;;;;;;;;5034526;28;20453;-61
2023/06/18 13:58:26;;;;;;;8.83;7.53;;;;;;;;;;5033597;28;20476;-61
2023/06/18 14:00:53;;;;;;;8.37;7.63;;;;;;;;;;5033929;28;20448;-61
2023/06/18 14:03:21;;;;;;;8.97;8.27;;;;;;;;;;5034355;28;20442;-61
2023/06/18 14:05:48;;;;;;;8.67;7.80;;;;;;;;;;5033270;28;20456;-61
2023/06/18 14:08:15;;;;;;;9.30;8.57;;;;;;;;;;5034056;28;20523;-61
2023/06/18 14:10:42;;;;;;;8.27;7.50;;;;;;;;;;5033817;28;20539;-61
2023/06/18 14:13:10;;;;;;;10.83;9.27;;;;;;;;;;5033652;28;20883;-61
2023/06/18 14:15:38;;;;;;;8.20;7.50;;;;;;;;;;5034259;28;20459;-61
2023/06/18 14:18:07;;;;;;;7.80;7.10;;;;;;;;;;5033451;28;20532;-61
2023/06/18 14:20:34;;;;;;;9.43;8.53;;;;;;;;;;5033442;28;20997;-61
2023/06/18 14:23:02;;;;;;;7.73;6.80;;;;;;;;;;5034065;28;20773;-61
2023/06/18 14:25:29;;;;;;;8.57;7.40;;;;;;;;;;5033673;28;20453;-61
2023/06/18 14:27:56;;;;;;;9.40;8.00;;;;;;;;;;5033555;28;20453;-61
2023/06/18 14:30:23;;;;;;;8.67;7.80;;;;;;;;;;5033702;28;20489;-61
2023/06/18 14:32:52;;;;;;;7.60;6.90;;;;;;;;;;5033936;28;20444;-61